• Join FlightAware (Why Join?)
  • Login
  • US Flag GB Flag 
23:38 EDT


 

Airport Tracker/Info


-or-


 

Live Flight TrackerFlight Track Log ✈ CTL312 ✈ 30-Apr-2013 ✈ KBKL - KPTK

Flight Track Log - Related Links

Times and Time Zones

All times are in EDT time to prevent confusion due to time zone crossing. See the CTL312 flight status page for this flight to view local times or setup timezone preferences in your user account.

Time Position Orientation Groundspeed Altitude Reporting Facility
EDT Latitude Longitude Course Direction KTS MPH feet Rate Location/Type
22:02 41.5275 -81.6758 339° North 119 137 1,000  Level Cleveland Center
22:03 41.5833 -81.7047 339° North 189 217 2,000 720 Climbing Cleveland Center
22:04 41.6164 -81.7469 316° Northwest 169 194 2,700 660 Climbing Cleveland Center
22:05 41.6303 -81.8028 288° West 169 194 3,300 660 Climbing Cleveland Center
22:06 41.6464 -81.8558 292° West 167 192 3,900 540 Climbing Cleveland Center
22:07 41.6625 -81.9144 290° West 168 193 4,400 480 Climbing Cleveland Center
22:08 41.6744 -81.9703 286° West 165 190 4,900 420 Climbing Cleveland Center
22:09 41.6903 -82.0264 291° West 168 193 5,300 360 Climbing Cleveland Center
22:10 41.7083 -82.0794 295° West 171 197 5,700 240 Climbing Cleveland Center
22:12 41.7358 -82.1997 287° West 172 198 6,100 120 Climbing Cleveland Center
22:13 41.7517 -82.2642 288° West 177 204 6,100 -60 Level Cleveland Center
22:14 41.7636 -82.3064 291° West 175 201 6,000 -60 Descending Cleveland Center
22:15 41.8064 -82.3744 310° West 180 207 6,000  Level Cleveland Center
22:17 41.8225 -82.4635 284° West  Level FlightAware Approximate
22:18 41.9228 -82.5228 339° North 178 205 6,000  Level Cleveland Center
22:19 41.9511 -82.5600 316° Northwest 178 205 6,000  Level Cleveland Center
22:20 41.9942 -82.6114 318° Northwest 177 204 6,000  Level Cleveland Center
22:21 42.0289 -82.6544 317° Northwest 180 207 6,000  Level Cleveland Center
22:23 42.0842 -82.6983 329° Northwest 179 206 6,000  Level Cleveland Center
22:24 42.0710 -82.7317 339° North  Level FlightAware Approximate
22:24 42.1275 -82.7306 331° Northwest 179 206 6,000  Level Cleveland Center
22:25 42.2097 -82.7950 330° Northwest 182 209 6,000  Level Cleveland Center
22:26 42.2528 -82.8272 331° Northwest 181 208 6,000  Level Cleveland Center
22:27 42.2917 -82.8597 328° Northwest 179 206 6,000  Level Cleveland Center
22:29 42.3389 -82.9006 327° Northwest 180 207 6,000  Level Cleveland Center
22:30 42.3839 -82.9361 330° Northwest 181 208 6,000  Level Cleveland Center
22:31 42.4250 -82.9714 328° Northwest 178 205 6,000 -240 Level Cleveland Center
22:31 42.4661 -83.0039 330° Northwest 186 214 5,600 -720 Descending Cleveland Center
22:32 42.5150 -83.0481 326° Northwest 207 238 4,700 -840 Descending Cleveland Center
22:33 42.5539 -83.0806 328° Northwest 203 234 4,100 -420 Descending Cleveland Center
22:34 42.5842 -83.1353 307° West 175 201 4,000 -360 Descending Cleveland Center
22:35 42.6078 -83.1956 298° West 192 221 3,400 -600 Descending Cleveland Center
22:36 42.6333 -83.2558 300° West 182 209 2,900 -480 Descending Cleveland Center
22:37 42.6511 -83.3017 298° West 164 189 2,600 -480 Descending Cleveland Center
22:38 42.6664 -83.3561 291° West 147 169 2,100 -540 Descending Cleveland Center
22:40 42.6500 -83.4167 304° West  Level FlightAware Approximate
22:47 42.6656 -83.4205 304° West  Level Estimated
22:48 42.6656 -83.4205 304° West  Level Estimated